FR-0042 weather

Public forecast

Using degrees Celsius for public forecast. Weather courtesy of forecast.io.

Closest aviation weather report (METAR) to Centre Hospitalier Régional Heliport

Closest report is Dijon-Bourgogne Airport, 3.9 nm (7.2 km) SE. Retrieved 2020/08/12 01:00 UTC (7 minutes ago):

LFSD 120100Z AUTO 30008KT 9999 TS FEW048/// BKN110/// OVC130/// ///CB 24/18 Q1014

Closest aviation forecast (TAF) to Centre Hospitalier Régional Heliport

Forecast is more than 12 hours old.

Closest forecast is Dijon-Bourgogne Airport, 3.9 nm (7.2 km) SE. Retrieved 2015/06/01 00:11 UTC (5 years ago):

TAF LFSD 010600Z 0100/0124 CNL